sensor_id;sensor_type;location;lat;lon;timestamp;temperature;humidity
1830;DHT22;914;48.118;11.600;2023-10-19T00:00:48;10.90;99.90
1830;DHT22;914;48.118;11.600;2023-10-19T00:03:16;11.00;99.90
1830;DHT22;914;48.118;11.600;2023-10-19T00:05:42;11.20;99.90
1830;DHT22;914;48.118;11.600;2023-10-19T00:08:08;11.10;99.90
1830;DHT22;914;48.118;11.600;2023-10-19T00:10:51;10.80;99.90
1830;DHT22;914;48.118;11.600;2023-10-19T00:13:36;11.20;99.90
1830;DHT22;914;48.118;11.600;2023-10-19T00:16:06;11.30;99.90
1830;DHT22;914;48.118;11.600;2023-10-19T00:18:45;11.10;99.90
1830;DHT22;914;48.118;11.600;2023-10-19T00:21:14;11.10;99.90
1830;DHT22;914;48.118;11.600;2023-10-19T00:23:47;11.00;99.90
1830;DHT22;914;48.118;11.600;2023-10-19T00:26:14;11.10;99.90
1830;DHT22;914;48.118;11.600;2023-10-19T00:28:43;11.10;99.90
1830;DHT22;914;48.118;11.600;2023-10-19T00:31:12;10.80;99.90
1830;DHT22;914;48.118;11.600;2023-10-19T00:33:39;10.90;99.90
1830;DHT22;914;48.118;11.600;2023-10-19T00:36:13;11.10;99.90
1830;DHT22;914;48.118;11.600;2023-10-19T00:38:40;11.30;99.90
1830;DHT22;914;48.118;11.600;2023-10-19T00:41:23;11.40;99.90
1830;DHT22;914;48.118;11.600;2023-10-19T00:43:57;11.40;99.90
1830;DHT22;914;48.118;11.600;2023-10-19T00:46:31;11.40;99.90
1830;DHT22;914;48.118;11.600;2023-10-19T00:49:09;11.50;99.90
1830;DHT22;914;48.118;11.600;2023-10-19T00:51:39;11.60;99.90
1830;DHT22;914;48.118;11.600;2023-10-19T00:54:15;11.70;99.90
1830;DHT22;914;48.118;11.600;2023-10-19T00:56:46;11.50;99.90
1830;DHT22;914;48.118;11.600;2023-10-19T00:59:18;11.50;99.90
1830;DHT22;914;48.118;11.600;2023-10-19T01:01:54;11.60;99.90
1830;DHT22;914;48.118;11.600;2023-10-19T01:04:22;11.70;99.90
1830;DHT22;914;48.118;11.600;2023-10-19T01:06:57;11.70;99.90
1830;DHT22;914;48.118;11.600;2023-10-19T01:09:30;11.60;99.90
1830;DHT22;914;48.118;11.600;2023-10-19T01:12:00;11.60;99.90
1830;DHT22;914;48.118;11.600;2023-10-19T01:14:31;11.50;99.90
1830;DHT22;914;48.118;11.600;2023-10-19T01:16:57;11.60;99.90
1830;DHT22;914;48.118;11.600;2023-10-19T01:19:24;11.60;99.90
1830;DHT22;914;48.118;11.600;2023-10-19T01:21:52;11.40;99.90
1830;DHT22;914;48.118;11.600;2023-10-19T01:24:23;11.40;99.90
1830;DHT22;914;48.118;11.600;2023-10-19T01:27:15;11.30;99.90
1830;DHT22;914;48.118;11.600;2023-10-19T01:29:41;11.40;99.90
1830;DHT22;914;48.118;11.600;2023-10-19T01:32:07;11.60;99.90
1830;DHT22;914;48.118;11.600;2023-10-19T01:34:37;11.50;99.90
1830;DHT22;914;48.118;11.600;2023-10-19T01:37:03;11.50;99.90
1830;DHT22;914;48.118;11.600;2023-10-19T01:39:33;11.70;99.90
1830;DHT22;914;48.118;11.600;2023-10-19T01:42:03;11.30;99.90
1830;DHT22;914;48.118;11.600;2023-10-19T01:44:33;11.40;99.90
1830;DHT22;914;48.118;11.600;2023-10-19T01:47:01;11.70;99.90
1830;DHT22;914;48.118;11.600;2023-10-19T01:49:27;11.60;99.90
1830;DHT22;914;48.118;11.600;2023-10-19T01:51:56;11.70;99.90
1830;DHT22;914;48.118;11.600;2023-10-19T01:54:22;11.60;99.90
1830;DHT22;914;48.118;11.600;2023-10-19T01:56:54;11.50;99.90
1830;DHT22;914;48.118;11.600;2023-10-19T01:59:25;11.30;99.90
1830;DHT22;914;48.118;11.600;2023-10-19T02:01:56;11.40;99.90
1830;DHT22;914;48.118;11.600;2023-10-19T02:04:23;11.30;99.90
1830;DHT22;914;48.118;11.600;2023-10-19T02:06:49;11.10;99.90
1830;DHT22;914;48.118;11.600;2023-10-19T02:09:17;11.10;99.90
1830;DHT22;914;48.118;11.600;2023-10-19T02:11:54;11.10;99.90
1830;DHT22;914;48.118;11.600;2023-10-19T02:14:24;11.20;99.90
1830;DHT22;914;48.118;11.600;2023-10-19T02:16:58;11.10;99.90
1830;DHT22;914;48.118;11.600;2023-10-19T02:19:26;11.10;99.90
1830;DHT22;914;48.118;11.600;2023-10-19T02:25:40;11.30;99.90
1830;DHT22;914;48.118;11.600;2023-10-19T02:28:06;11.40;99.90
1830;DHT22;914;48.118;11.600;2023-10-19T02:30:33;11.50;99.90
1830;DHT22;914;48.118;11.600;2023-10-19T02:33:00;11.60;99.90
1830;DHT22;914;48.118;11.600;2023-10-19T02:35:31;11.60;99.90
1830;DHT22;914;48.118;11.600;2023-10-19T02:37:57;11.60;99.90
1830;DHT22;914;48.118;11.600;2023-10-19T02:40:23;11.70;99.90
1830;DHT22;914;48.118;11.600;2023-10-19T02:42:50;11.70;99.90
1830;DHT22;914;48.118;11.600;2023-10-19T02:45:17;11.70;99.90
1830;DHT22;914;48.118;11.600;2023-10-19T02:47:44;11.70;99.90
1830;DHT22;914;48.118;11.600;2023-10-19T02:50:10;11.70;99.90
1830;DHT22;914;48.118;11.600;2023-10-19T02:52:47;11.60;99.90
1830;DHT22;914;48.118;11.600;2023-10-19T02:55:13;11.70;99.90
1830;DHT22;914;48.118;11.600;2023-10-19T02:57:41;11.70;99.90
1830;DHT22;914;48.118;11.600;2023-10-19T03:00:12;11.70;99.90
1830;DHT22;914;48.118;11.600;2023-10-19T03:02:40;11.70;99.90
1830;DHT22;914;48.118;11.600;2023-10-19T03:05:06;11.80;99.90
1830;DHT22;914;48.118;11.600;2023-10-19T03:07:43;11.80;99.90
1830;DHT22;914;48.118;11.600;2023-10-19T03:10:10;11.90;99.90
1830;DHT22;914;48.118;11.600;2023-10-19T03:13:11;11.90;99.90
1830;DHT22;914;48.118;11.600;2023-10-19T03:15:40;11.90;99.90
1830;DHT22;914;48.118;11.600;2023-10-19T03:18:08;11.90;99.90
1830;DHT22;914;48.118;11.600;2023-10-19T03:20:37;11.90;99.90
1830;DHT22;914;48.118;11.600;2023-10-19T03:23:02;11.90;99.90
1830;DHT22;914;48.118;11.600;2023-10-19T03:25:28;11.90;99.90
1830;DHT22;914;48.118;11.600;2023-10-19T03:28:12;12.00;99.90
1830;DHT22;914;48.118;11.600;2023-10-19T03:30:38;12.10;99.90
1830;DHT22;914;48.118;11.600;2023-10-19T03:33:05;12.00;99.90
1830;DHT22;914;48.118;11.600;2023-10-19T03:35:31;11.90;99.90
1830;DHT22;914;48.118;11.600;2023-10-19T03:37:56;11.90;99.90
1830;DHT22;914;48.118;11.600;2023-10-19T03:40:26;11.90;99.90
1830;DHT22;914;48.118;11.600;2023-10-19T03:42:56;11.90;99.90
1830;DHT22;914;48.118;11.600;2023-10-19T03:45:22;12.00;99.90
1830;DHT22;914;48.118;11.600;2023-10-19T03:47:51;11.90;99.90
1830;DHT22;914;48.118;11.600;2023-10-19T03:50:19;11.90;99.90
1830;DHT22;914;48.118;11.600;2023-10-19T03:52:48;11.90;99.90
1830;DHT22;914;48.118;11.600;2023-10-19T03:55:13;12.00;99.90
1830;DHT22;914;48.118;11.600;2023-10-19T03:57:45;12.00;99.90
1830;DHT22;914;48.118;11.600;2023-10-19T04:00:18;11.90;99.90
1830;DHT22;914;48.118;11.600;2023-10-19T04:02:51;11.90;99.90
1830;DHT22;914;48.118;11.600;2023-10-19T04:05:19;12.10;99.90
1830;DHT22;914;48.118;11.600;2023-10-19T04:07:51;12.00;99.90
1830;DHT22;914;48.118;11.600;2023-10-19T04:10:21;11.90;99.90
1830;DHT22;914;48.118;11.600;2023-10-19T04:13:04;11.90;99.90
1830;DHT22;914;48.118;11.600;2023-10-19T04:15:34;11.90;99.90
1830;DHT22;914;48.118;11.600;2023-10-19T04:18:02;11.90;99.90
1830;DHT22;914;48.118;11.600;2023-10-19T04:20:34;11.90;99.90
1830;DHT22;914;48.118;11.600;2023-10-19T04:23:18;11.70;99.90
1830;DHT22;914;48.118;11.600;2023-10-19T04:25:46;11.90;99.90
1830;DHT22;914;48.118;11.600;2023-10-19T04:28:12;12.00;99.90
1830;DHT22;914;48.118;11.600;2023-10-19T04:30:41;12.10;99.90
1830;DHT22;914;48.118;11.600;2023-10-19T04:33:06;12.20;99.90
1830;DHT22;914;48.118;11.600;2023-10-19T04:35:36;12.10;99.90
1830;DHT22;914;48.118;11.600;2023-10-19T04:38:04;12.10;99.90
1830;DHT22;914;48.118;11.600;2023-10-19T04:40:32;12.10;99.90
1830;DHT22;914;48.118;11.600;2023-10-19T04:42:57;12.10;99.90
1830;DHT22;914;48.118;11.600;2023-10-19T04:45:23;12.00;99.90
1830;DHT22;914;48.118;11.600;2023-10-19T04:47:52;11.90;99.90
1830;DHT22;914;48.118;11.600;2023-10-19T04:50:18;11.90;99.90
1830;DHT22;914;48.118;11.600;2023-10-19T04:52:44;11.90;99.90
1830;DHT22;914;48.118;11.600;2023-10-19T04:55:10;12.10;99.90
1830;DHT22;914;48.118;11.600;2023-10-19T04:57:35;12.20;99.90
1830;DHT22;914;48.118;11.600;2023-10-19T05:00:02;12.20;99.90
1830;DHT22;914;48.118;11.600;2023-10-19T05:02:29;12.20;99.90
1830;DHT22;914;48.118;11.600;2023-10-19T05:04:55;12.20;99.90
1830;DHT22;914;48.118;11.600;2023-10-19T05:07:20;12.20;99.90
1830;DHT22;914;48.118;11.600;2023-10-19T05:09:46;12.20;99.90
1830;DHT22;914;48.118;11.600;2023-10-19T05:12:13;12.30;99.90
1830;DHT22;914;48.118;11.600;2023-10-19T05:14:40;12.30;99.90
1830;DHT22;914;48.118;11.600;2023-10-19T05:17:07;12.20;99.90
1830;DHT22;914;48.118;11.600;2023-10-19T05:19:36;12.20;99.90
1830;DHT22;914;48.118;11.600;2023-10-19T05:22:04;12.20;99.90
1830;DHT22;914;48.118;11.600;2023-10-19T05:24:29;12.20;99.90
1830;DHT22;914;48.118;11.600;2023-10-19T05:26:55;12.30;99.90
1830;DHT22;914;48.118;11.600;2023-10-19T05:29:22;12.30;99.90
1830;DHT22;914;48.118;11.600;2023-10-19T05:31:50;12.40;99.90
1830;DHT22;914;48.118;11.600;2023-10-19T05:34:20;12.40;99.90
1830;DHT22;914;48.118;11.600;2023-10-19T05:36:46;12.40;99.90
1830;DHT22;914;48.118;11.600;2023-10-19T05:39:17;12.30;99.90
1830;DHT22;914;48.118;11.600;2023-10-19T05:41:43;12.30;99.90
1830;DHT22;914;48.118;11.600;2023-10-19T05:44:10;12.00;99.90
1830;DHT22;914;48.118;11.600;2023-10-19T05:46:36;12.10;99.90
1830;DHT22;914;48.118;11.600;2023-10-19T05:49:02;12.20;99.90
1830;DHT22;914;48.118;11.600;2023-10-19T05:51:30;12.20;99.90
1830;DHT22;914;48.118;11.600;2023-10-19T05:53:55;12.30;99.90
1830;DHT22;914;48.118;11.600;2023-10-19T05:56:27;12.20;99.90
1830;DHT22;914;48.118;11.600;2023-10-19T05:58:53;12.30;99.90
1830;DHT22;914;48.118;11.600;2023-10-19T06:01:19;12.30;99.90
1830;DHT22;914;48.118;11.600;2023-10-19T06:03:45;12.40;99.90
1830;DHT22;914;48.118;11.600;2023-10-19T06:06:11;12.50;99.90
1830;DHT22;914;48.118;11.600;2023-10-19T06:08:37;12.70;99.90
1830;DHT22;914;48.118;11.600;2023-10-19T06:11:02;12.60;99.90
1830;DHT22;914;48.118;11.600;2023-10-19T06:13:40;12.50;99.90
1830;DHT22;914;48.118;11.600;2023-10-19T06:16:20;12.60;99.90
1830;DHT22;914;48.118;11.600;2023-10-19T06:19:05;12.60;99.90
1830;DHT22;914;48.118;11.600;2023-10-19T06:21:37;12.50;99.90
1830;DHT22;914;48.118;11.600;2023-10-19T06:24:03;12.50;99.90
1830;DHT22;914;48.118;11.600;2023-10-19T06:26:29;12.50;99.90
1830;DHT22;914;48.118;11.600;2023-10-19T06:28:55;12.60;99.90
1830;DHT22;914;48.118;11.600;2023-10-19T06:31:25;12.70;99.90
1830;DHT22;914;48.118;11.600;2023-10-19T06:33:52;12.60;99.90
1830;DHT22;914;48.118;11.600;2023-10-19T06:36:36;12.60;99.90
1830;DHT22;914;48.118;11.600;2023-10-19T06:39:08;12.50;99.90
1830;DHT22;914;48.118;11.600;2023-10-19T06:41:34;12.50;99.90
1830;DHT22;914;48.118;11.600;2023-10-19T06:44:00;12.60;99.90
1830;DHT22;914;48.118;11.600;2023-10-19T06:46:34;12.60;99.90
1830;DHT22;914;48.118;11.600;2023-10-19T06:49:06;12.60;99.90
1830;DHT22;914;48.118;11.600;2023-10-19T06:51:36;12.60;99.90
1830;DHT22;914;48.118;11.600;2023-10-19T06:54:03;12.70;99.90
1830;DHT22;914;48.118;11.600;2023-10-19T06:56:32;12.70;99.90
1830;DHT22;914;48.118;11.600;2023-10-19T06:58:58;12.80;99.90
1830;DHT22;914;48.118;11.600;2023-10-19T07:01:24;12.80;99.90
1830;DHT22;914;48.118;11.600;2023-10-19T07:03:55;12.80;99.90
1830;DHT22;914;48.118;11.600;2023-10-19T07:06:22;12.90;99.90
1830;DHT22;914;48.118;11.600;2023-10-19T07:08:47;13.10;99.90
1830;DHT22;914;48.118;11.600;2023-10-19T07:11:13;13.20;99.90
1830;DHT22;914;48.118;11.600;2023-10-19T07:13:39;13.30;99.90
1830;DHT22;914;48.118;11.600;2023-10-19T07:16:05;13.50;99.90
1830;DHT22;914;48.118;11.600;2023-10-19T07:18:31;13.50;99.90
1830;DHT22;914;48.118;11.600;2023-10-19T07:20:57;13.60;99.90
1830;DHT22;914;48.118;11.600;2023-10-19T07:23:29;13.70;99.90
1830;DHT22;914;48.118;11.600;2023-10-19T07:25:54;13.80;99.90
1830;DHT22;914;48.118;11.600;2023-10-19T07:28:22;13.90;99.90
1830;DHT22;914;48.118;11.600;2023-10-19T07:30:51;14.00;99.90
1830;DHT22;914;48.118;11.600;2023-10-19T07:33:17;14.00;99.90
1830;DHT22;914;48.118;11.600;2023-10-19T07:35:45;13.80;99.90
1830;DHT22;914;48.118;11.600;2023-10-19T07:38:15;14.00;99.90
1830;DHT22;914;48.118;11.600;2023-10-19T07:40:43;14.20;99.90
1830;DHT22;914;48.118;11.600;2023-10-19T07:43:11;14.30;99.90
1830;DHT22;914;48.118;11.600;2023-10-19T07:45:48;14.50;99.90
1830;DHT22;914;48.118;11.600;2023-10-19T07:48:24;14.60;99.90
1830;DHT22;914;48.118;11.600;2023-10-19T07:50:50;14.80;99.90
1830;DHT22;914;48.118;11.600;2023-10-19T07:53:19;14.90;99.90
1830;DHT22;914;48.118;11.600;2023-10-19T07:55:45;14.90;99.90
1830;DHT22;914;48.118;11.600;2023-10-19T07:58:11;15.00;99.90
1830;DHT22;914;48.118;11.600;2023-10-19T08:00:37;15.10;99.90
1830;DHT22;914;48.118;11.600;2023-10-19T08:03:07;15.30;99.90
1830;DHT22;914;48.118;11.600;2023-10-19T08:05:35;15.40;99.90
1830;DHT22;914;48.118;11.600;2023-10-19T08:08:02;15.40;99.90
1830;DHT22;914;48.118;11.600;2023-10-19T08:10:34;15.50;99.90
1830;DHT22;914;48.118;11.600;2023-10-19T08:13:00;15.60;99.90
1830;DHT22;914;48.118;11.600;2023-10-19T08:15:38;15.70;99.90
1830;DHT22;914;48.118;11.600;2023-10-19T08:18:04;15.80;99.90
1830;DHT22;914;48.118;11.600;2023-10-19T08:20:31;15.80;99.90
1830;DHT22;914;48.118;11.600;2023-10-19T08:22:59;15.90;99.90
1830;DHT22;914;48.118;11.600;2023-10-19T08:25:26;16.10;99.90
1830;DHT22;914;48.118;11.600;2023-10-19T08:27:55;16.20;99.90
1830;DHT22;914;48.118;11.600;2023-10-19T08:30:24;16.40;99.90
1830;DHT22;914;48.118;11.600;2023-10-19T08:32:51;16.50;99.90
1830;DHT22;914;48.118;11.600;2023-10-19T08:35:18;16.60;99.90
1830;DHT22;914;48.118;11.600;2023-10-19T08:37:46;17.00;99.90
1830;DHT22;914;48.118;11.600;2023-10-19T08:40:13;17.20;99.90
1830;DHT22;914;48.118;11.600;2023-10-19T08:42:43;16.70;99.90
1830;DHT22;914;48.118;11.600;2023-10-19T08:45:11;16.50;99.90
1830;DHT22;914;48.118;11.600;2023-10-19T08:47:58;16.70;99.90
1830;DHT22;914;48.118;11.600;2023-10-19T08:50:27;16.80;99.90
1830;DHT22;914;48.118;11.600;2023-10-19T08:52:58;17.10;99.90
1830;DHT22;914;48.118;11.600;2023-10-19T08:58:44;17.50;99.90
1830;DHT22;914;48.118;11.600;2023-10-19T09:01:20;17.60;99.90
1830;DHT22;914;48.118;11.600;2023-10-19T09:04:04;17.70;99.90
1830;DHT22;914;48.118;11.600;2023-10-19T09:06:39;17.90;99.90
1830;DHT22;914;48.118;11.600;2023-10-19T09:09:09;18.00;99.90
1830;DHT22;914;48.118;11.600;2023-10-19T09:11:40;18.10;99.90
1830;DHT22;914;48.118;11.600;2023-10-19T09:14:15;18.10;99.90
1830;DHT22;914;48.118;11.600;2023-10-19T09:19:50;17.90;99.90
1830;DHT22;914;48.118;11.600;2023-10-19T09:22:16;17.70;99.90
1830;DHT22;914;48.118;11.600;2023-10-19T09:24:48;18.20;99.90
1830;DHT22;914;48.118;11.600;2023-10-19T09:27:19;18.30;99.90
1830;DHT22;914;48.118;11.600;2023-10-19T09:29:45;18.30;99.90
1830;DHT22;914;48.118;11.600;2023-10-19T09:32:10;18.20;99.90
1830;DHT22;914;48.118;11.600;2023-10-19T09:34:39;18.20;99.90
1830;DHT22;914;48.118;11.600;2023-10-19T09:37:09;18.20;99.90
1830;DHT22;914;48.118;11.600;2023-10-19T09:39:35;18.20;99.90
1830;DHT22;914;48.118;11.600;2023-10-19T09:42:08;18.30;99.90
1830;DHT22;914;48.118;11.600;2023-10-19T09:44:43;18.40;99.90
1830;DHT22;914;48.118;11.600;2023-10-19T09:47:14;17.90;99.90
1830;DHT22;914;48.118;11.600;2023-10-19T09:49:41;17.60;99.90
1830;DHT22;914;48.118;11.600;2023-10-19T09:52:09;17.50;99.90
1830;DHT22;914;48.118;11.600;2023-10-19T09:57:39;18.30;99.90
1830;DHT22;914;48.118;11.600;2023-10-19T10:00:08;18.60;99.90
1830;DHT22;914;48.118;11.600;2023-10-19T10:02:47;18.70;99.90
1830;DHT22;914;48.118;11.600;2023-10-19T10:08:30;18.50;99.90
1830;DHT22;914;48.118;11.600;2023-10-19T10:10:58;18.50;99.90
1830;DHT22;914;48.118;11.600;2023-10-19T10:15:56;18.50;99.90
1830;DHT22;914;48.118;11.600;2023-10-19T10:18:34;18.50;99.90
1830;DHT22;914;48.118;11.600;2023-10-19T10:21:16;18.80;99.90
1830;DHT22;914;48.118;11.600;2023-10-19T10:24:03;19.10;99.90
1830;DHT22;914;48.118;11.600;2023-10-19T10:26:30;19.50;99.90
1830;DHT22;914;48.118;11.600;2023-10-19T10:29:14;19.80;99.90
1830;DHT22;914;48.118;11.600;2023-10-19T10:31:48;20.10;99.90
1830;DHT22;914;48.118;11.600;2023-10-19T10:37:09;20.00;99.90
1830;DHT22;914;48.118;11.600;2023-10-19T10:39:37;20.00;99.90
1830;DHT22;914;48.118;11.600;2023-10-19T10:42:04;20.20;99.90
1830;DHT22;914;48.118;11.600;2023-10-19T10:44:40;20.20;99.90
1830;DHT22;914;48.118;11.600;2023-10-19T10:47:11;20.20;99.90
1830;DHT22;914;48.118;11.600;2023-10-19T10:49:54;20.10;99.90
1830;DHT22;914;48.118;11.600;2023-10-19T10:54:50;20.10;99.90
1830;DHT22;914;48.118;11.600;2023-10-19T10:57:16;20.20;99.90
1830;DHT22;914;48.118;11.600;2023-10-19T10:59:41;20.30;99.90
1830;DHT22;914;48.118;11.600;2023-10-19T11:02:19;20.50;99.90
1830;DHT22;914;48.118;11.600;2023-10-19T11:04:47;20.80;99.90
1830;DHT22;914;48.118;11.600;2023-10-19T11:07:19;20.80;99.10
1830;DHT22;914;48.118;11.600;2023-10-19T11:09:46;21.00;99.90
1830;DHT22;914;48.118;11.600;2023-10-19T11:12:13;21.10;99.10
1830;DHT22;914;48.118;11.600;2023-10-19T11:14:55;21.00;99.40
1830;DHT22;914;48.118;11.600;2023-10-19T11:17:21;21.00;98.90
1830;DHT22;914;48.118;11.600;2023-10-19T11:19:56;21.10;99.90
1830;DHT22;914;48.118;11.600;2023-10-19T11:22:23;21.10;99.00
1830;DHT22;914;48.118;11.600;2023-10-19T11:24:53;21.20;99.20
1830;DHT22;914;48.118;11.600;2023-10-19T11:27:29;21.20;99.50
1830;DHT22;914;48.118;11.600;2023-10-19T11:32:21;21.50;98.60
1830;DHT22;914;48.118;11.600;2023-10-19T11:34:47;21.20;98.70
1830;DHT22;914;48.118;11.600;2023-10-19T11:37:13;20.60;98.70
1830;DHT22;914;48.118;11.600;2023-10-19T11:39:39;20.40;99.70
1830;DHT22;914;48.118;11.600;2023-10-19T11:42:05;20.40;99.60
1830;DHT22;914;48.118;11.600;2023-10-19T11:44:30;20.40;99.70
1830;DHT22;914;48.118;11.600;2023-10-19T11:46:56;20.60;98.90
1830;DHT22;914;48.118;11.600;2023-10-19T11:49:21;20.60;99.00
1830;DHT22;914;48.118;11.600;2023-10-19T11:51:48;20.50;99.90
1830;DHT22;914;48.118;11.600;2023-10-19T11:54:14;20.60;99.70
1830;DHT22;914;48.118;11.600;2023-10-19T11:56:39;20.50;99.80
1830;DHT22;914;48.118;11.600;2023-10-19T11:59:05;20.40;99.90
1830;DHT22;914;48.118;11.600;2023-10-19T12:01:32;20.40;99.90
1830;DHT22;914;48.118;11.600;2023-10-19T12:03:58;20.40;99.90
1830;DHT22;914;48.118;11.600;2023-10-19T12:06:25;20.40;99.90
1830;DHT22;914;48.118;11.600;2023-10-19T12:08:51;20.20;99.90
1830;DHT22;914;48.118;11.600;2023-10-19T12:11:16;20.10;99.90
1830;DHT22;914;48.118;11.600;2023-10-19T12:13:44;20.20;99.90
1830;DHT22;914;48.118;11.600;2023-10-19T12:16:13;20.70;99.90
1830;DHT22;914;48.118;11.600;2023-10-19T12:18:44;21.20;99.90
1830;DHT22;914;48.118;11.600;2023-10-19T12:21:10;21.50;99.00
1830;DHT22;914;48.118;11.600;2023-10-19T12:23:44;21.60;99.80
1830;DHT22;914;48.118;11.600;2023-10-19T12:26:10;21.90;99.00
1830;DHT22;914;48.118;11.600;2023-10-19T12:28:40;21.90;98.60
1830;DHT22;914;48.118;11.600;2023-10-19T12:31:09;21.60;97.80
1830;DHT22;914;48.118;11.600;2023-10-19T12:33:36;21.80;98.00
1830;DHT22;914;48.118;11.600;2023-10-19T12:36:04;21.80;98.10
1830;DHT22;914;48.118;11.600;2023-10-19T12:38:50;21.20;97.80
1830;DHT22;914;48.118;11.600;2023-10-19T12:41:16;21.30;99.00
1830;DHT22;914;48.118;11.600;2023-10-19T12:43:43;21.10;98.80
1830;DHT22;914;48.118;11.600;2023-10-19T12:46:09;21.60;98.50
1830;DHT22;914;48.118;11.600;2023-10-19T12:48:35;21.70;98.10
1830;DHT22;914;48.118;11.600;2023-10-19T12:51:01;21.70;97.70
1830;DHT22;914;48.118;11.600;2023-10-19T12:53:27;21.40;96.90
1830;DHT22;914;48.118;11.600;2023-10-19T12:55:53;21.10;98.60
1830;DHT22;914;48.118;11.600;2023-10-19T12:58:19;21.50;98.90
1830;DHT22;914;48.118;11.600;2023-10-19T13:00:47;21.80;98.00
1830;DHT22;914;48.118;11.600;2023-10-19T13:03:14;22.10;97.90
1830;DHT22;914;48.118;11.600;2023-10-19T13:05:42;22.10;96.60
1830;DHT22;914;48.118;11.600;2023-10-19T13:08:11;21.80;95.10
1830;DHT22;914;48.118;11.600;2023-10-19T13:10:44;20.60;96.60
1830;DHT22;914;48.118;11.600;2023-10-19T13:13:11;20.30;97.80
1830;DHT22;914;48.118;11.600;2023-10-19T13:15:39;20.70;97.50
1830;DHT22;914;48.118;11.600;2023-10-19T13:18:06;21.30;97.20
1830;DHT22;914;48.118;11.600;2023-10-19T13:20:33;20.90;97.20
1830;DHT22;914;48.118;11.600;2023-10-19T13:23:08;20.40;97.50
1830;DHT22;914;48.118;11.600;2023-10-19T13:25:47;20.70;96.00
1830;DHT22;914;48.118;11.600;2023-10-19T13:28:20;21.00;96.40
1830;DHT22;914;48.118;11.600;2023-10-19T13:30:52;21.30;96.60
1830;DHT22;914;48.118;11.600;2023-10-19T13:33:22;21.30;96.30
1830;DHT22;914;48.118;11.600;2023-10-19T13:35:49;20.50;96.10
1830;DHT22;914;48.118;11.600;2023-10-19T13:38:17;19.70;97.60
1830;DHT22;914;48.118;11.600;2023-10-19T13:40:45;19.40;98.00
1830;DHT22;914;48.118;11.600;2023-10-19T13:43:12;19.10;98.90
1830;DHT22;914;48.118;11.600;2023-10-19T13:45:42;19.40;99.10
1830;DHT22;914;48.118;11.600;2023-10-19T13:48:09;19.50;98.80
1830;DHT22;914;48.118;11.600;2023-10-19T13:50:35;19.20;99.10
1830;DHT22;914;48.118;11.600;2023-10-19T13:53:02;19.00;99.80
1830;DHT22;914;48.118;11.600;2023-10-19T13:55:30;19.00;99.90
1830;DHT22;914;48.118;11.600;2023-10-19T13:57:56;19.20;99.40
1830;DHT22;914;48.118;11.600;2023-10-19T14:00:23;19.20;99.50
1830;DHT22;914;48.118;11.600;2023-10-19T14:02:51;18.80;99.70
1830;DHT22;914;48.118;11.600;2023-10-19T14:05:17;19.00;99.80
1830;DHT22;914;48.118;11.600;2023-10-19T14:07:44;19.00;99.80
1830;DHT22;914;48.118;11.600;2023-10-19T14:10:13;19.20;99.90
1830;DHT22;914;48.118;11.600;2023-10-19T14:12:43;19.30;99.20
1830;DHT22;914;48.118;11.600;2023-10-19T14:15:14;19.20;99.70
1830;DHT22;914;48.118;11.600;2023-10-19T14:17:41;19.40;99.90
1830;DHT22;914;48.118;11.600;2023-10-19T14:20:07;19.70;99.60
1830;DHT22;914;48.118;11.600;2023-10-19T14:25:07;18.70;99.90
1830;DHT22;914;48.118;11.600;2023-10-19T14:27:46;18.60;99.90
1830;DHT22;914;48.118;11.600;2023-10-19T14:30:17;18.50;99.90
1830;DHT22;914;48.118;11.600;2023-10-19T14:32:44;18.40;99.90
1830;DHT22;914;48.118;11.600;2023-10-19T14:35:13;18.10;99.90
1830;DHT22;914;48.118;11.600;2023-10-19T14:37:45;18.00;99.90
1830;DHT22;914;48.118;11.600;2023-10-19T14:40:12;18.30;99.90
1830;DHT22;914;48.118;11.600;2023-10-19T14:42:40;18.90;99.90
1830;DHT22;914;48.118;11.600;2023-10-19T14:45:12;19.20;99.90
1830;DHT22;914;48.118;11.600;2023-10-19T14:47:49;19.20;99.90
1830;DHT22;914;48.118;11.600;2023-10-19T14:50:20;18.80;99.90
1830;DHT22;914;48.118;11.600;2023-10-19T14:52:48;18.80;99.90
1830;DHT22;914;48.118;11.600;2023-10-19T14:55:15;18.80;99.90
1830;DHT22;914;48.118;11.600;2023-10-19T14:57:45;18.90;99.90
1830;DHT22;914;48.118;11.600;2023-10-19T15:00:15;18.70;99.90
1830;DHT22;914;48.118;11.600;2023-10-19T15:02:49;18.70;99.90
1830;DHT22;914;48.118;11.600;2023-10-19T15:05:16;18.30;99.90
1830;DHT22;914;48.118;11.600;2023-10-19T15:07:43;18.50;99.90
1830;DHT22;914;48.118;11.600;2023-10-19T15:10:11;18.80;99.90
1830;DHT22;914;48.118;11.600;2023-10-19T15:12:41;18.80;99.90
1830;DHT22;914;48.118;11.600;2023-10-19T15:15:07;18.60;99.90
1830;DHT22;914;48.118;11.600;2023-10-19T15:17:55;18.50;99.90
1830;DHT22;914;48.118;11.600;2023-10-19T15:20:26;18.30;99.90
1830;DHT22;914;48.118;11.600;2023-10-19T15:22:52;18.30;99.90
1830;DHT22;914;48.118;11.600;2023-10-19T15:25:22;18.30;99.90
1830;DHT22;914;48.118;11.600;2023-10-19T15:27:50;18.40;99.90
1830;DHT22;914;48.118;11.600;2023-10-19T15:30:17;18.50;99.90
1830;DHT22;914;48.118;11.600;2023-10-19T15:35:15;18.10;99.90
1830;DHT22;914;48.118;11.600;2023-10-19T15:37:43;18.00;99.90
1830;DHT22;914;48.118;11.600;2023-10-19T15:40:09;18.20;99.90
1830;DHT22;914;48.118;11.600;2023-10-19T15:42:41;18.40;99.90
1830;DHT22;914;48.118;11.600;2023-10-19T15:45:11;18.00;99.90
1830;DHT22;914;48.118;11.600;2023-10-19T15:47:38;17.70;99.90
1830;DHT22;914;48.118;11.600;2023-10-19T15:50:06;17.60;99.90
1830;DHT22;914;48.118;11.600;2023-10-19T15:52:33;17.40;99.90
1830;DHT22;914;48.118;11.600;2023-10-19T15:55:00;17.70;99.90
1830;DHT22;914;48.118;11.600;2023-10-19T15:57:26;18.00;99.90
1830;DHT22;914;48.118;11.600;2023-10-19T15:59:52;18.30;99.90
1830;DHT22;914;48.118;11.600;2023-10-19T16:02:18;18.50;99.90
1830;DHT22;914;48.118;11.600;2023-10-19T16:04:44;18.40;99.90
1830;DHT22;914;48.118;11.600;2023-10-19T16:07:14;18.40;99.90
1830;DHT22;914;48.118;11.600;2023-10-19T16:09:41;18.40;99.90
1830;DHT22;914;48.118;11.600;2023-10-19T16:12:07;18.30;99.90
1830;DHT22;914;48.118;11.600;2023-10-19T16:14:37;18.20;99.90
1830;DHT22;914;48.118;11.600;2023-10-19T16:17:03;18.20;99.90
1830;DHT22;914;48.118;11.600;2023-10-19T16:19:30;18.30;99.90
1830;DHT22;914;48.118;11.600;2023-10-19T16:21:56;18.50;99.90
1830;DHT22;914;48.118;11.600;2023-10-19T16:24:22;18.00;99.90
1830;DHT22;914;48.118;11.600;2023-10-19T16:26:51;18.10;99.90
1830;DHT22;914;48.118;11.600;2023-10-19T16:29:17;18.10;99.90
1830;DHT22;914;48.118;11.600;2023-10-19T16:31:44;17.60;99.90
1830;DHT22;914;48.118;11.600;2023-10-19T16:34:14;17.00;99.90
1830;DHT22;914;48.118;11.600;2023-10-19T16:36:41;16.70;99.90
1830;DHT22;914;48.118;11.600;2023-10-19T16:39:08;17.00;99.90
1830;DHT22;914;48.118;11.600;2023-10-19T16:41:34;17.00;99.90
1830;DHT22;914;48.118;11.600;2023-10-19T16:44:00;17.00;99.90
1830;DHT22;914;48.118;11.600;2023-10-19T16:46:26;17.20;99.90